createdAt,value
2019-02-09T01:25:15.848Z,2.42
2019-02-09T01:30:22.884Z,2.35
2019-02-09T01:35:33.741Z,2.33
2019-02-09T01:40:42.993Z,2.30
2019-02-09T01:46:05.280Z,2.60
2019-02-09T01:51:57.202Z,2.47
2019-02-09T01:57:10.244Z,2.70
2019-02-09T02:02:44.884Z,2.20
2019-02-09T02:07:46.393Z,2.67
2019-02-09T02:13:09.677Z,2.45
2019-02-09T02:18:15.958Z,3.00
2019-02-09T02:23:29.373Z,3.00
2019-02-09T02:28:37.913Z,2.65
2019-02-09T02:33:43.467Z,3.30
2019-02-09T02:38:48.302Z,3.20
2019-02-09T02:43:55.761Z,2.93
2019-02-09T03:01:16.575Z,3.40
2019-02-09T03:06:18.512Z,2.70
2019-02-09T03:11:23.765Z,3.17
2019-02-09T03:16:28.538Z,2.80
2019-02-09T03:21:33.075Z,3.05
2019-02-09T03:32:41.671Z,3.00
2019-02-09T03:37:51.226Z,2.90
2019-02-09T03:43:00.520Z,2.70
2019-02-09T03:48:09.515Z,3.00
2019-02-09T03:53:17.383Z,2.50
2019-02-09T03:58:24.562Z,2.42
2019-02-09T04:03:44.949Z,2.10
2019-02-09T04:08:52.457Z,2.50
2019-02-09T04:13:57.843Z,2.17
2019-02-09T04:19:09.071Z,2.20
2019-02-09T04:24:51.071Z,2.22
2019-02-09T04:30:12.702Z,2.10
2019-02-09T04:35:28.267Z,1.77
2019-02-09T04:40:36.011Z,2.15
2019-02-09T04:45:45.474Z,1.80
2019-02-09T04:51:44.360Z,2.30
2019-02-09T04:56:52.111Z,2.80
2019-02-09T05:01:59.777Z,2.77
2019-02-09T05:07:04.458Z,2.80
2019-02-09T05:12:10.157Z,2.90
2019-02-09T05:17:19.326Z,2.95
2019-02-09T05:22:43.227Z,3.20
2019-02-09T05:34:06.304Z,3.25
2019-02-09T05:39:35.291Z,2.90
2019-02-09T05:45:09.522Z,3.10
2019-02-09T05:56:20.677Z,2.60
2019-02-09T06:01:32.249Z,2.65
2019-02-09T06:06:37.705Z,2.62
2019-02-09T06:11:45.201Z,2.70
2019-02-09T06:17:03.664Z,2.50
2019-02-09T06:22:14.732Z,2.27
2019-02-09T06:27:31.356Z,2.42
2019-02-09T06:38:22.182Z,2.85
2019-02-09T06:43:37.049Z,2.15
2019-02-09T06:48:49.393Z,2.17
2019-02-09T06:54:00.167Z,1.90
2019-02-09T06:59:08.940Z,2.00
2019-02-09T07:04:15.790Z,1.90
2019-02-09T07:09:27.864Z,2.20
2019-02-09T07:14:51.409Z,2.08
2019-02-09T07:20:19.050Z,2.37
2019-02-09T07:26:03.707Z,2.45
2019-02-09T07:31:08.993Z,2.13
2019-02-09T07:36:34.523Z,2.08
2019-02-09T07:41:42.298Z,2.00
2019-02-09T07:47:08.827Z,2.00
2019-02-09T08:31:58.146Z,2.10
2019-02-09T08:37:15.513Z,1.90
2019-02-09T08:42:40.496Z,2.17
2019-02-09T08:47:52.005Z,2.10
2019-02-09T08:53:08.769Z,2.17
2019-02-09T08:58:28.499Z,2.80
2019-02-09T09:03:38.324Z,2.40
2019-02-09T09:14:26.338Z,2.90
2019-02-09T09:25:43.048Z,2.90
2019-02-09T09:30:51.473Z,2.70
2019-02-09T09:36:00.033Z,2.22
2019-02-09T09:41:06.995Z,2.60
2019-02-09T09:46:53.098Z,2.70
2019-02-09T09:57:46.393Z,2.22
2019-02-09T10:03:09.828Z,2.00
2019-02-09T10:08:14.353Z,2.55
2019-02-09T10:13:18.655Z,2.50
2019-02-09T10:18:22.914Z,2.50
2019-02-09T10:23:29.209Z,2.30
2019-02-09T10:28:40.110Z,2.30
2019-02-09T10:33:48.982Z,2.30
2019-02-09T10:38:56.471Z,2.20
2019-02-09T10:44:12.199Z,2.30
2019-02-09T10:49:19.898Z,2.80
2019-02-09T10:54:27.011Z,2.63
2019-02-09T10:59:39.891Z,2.20
2019-02-09T11:04:44.842Z,2.50
2019-02-09T11:10:01.881Z,2.00
2019-02-09T11:15:23.344Z,1.97
2019-02-09T11:20:33.675Z,2.20
2019-02-09T11:25:49.766Z,2.10
2019-02-09T11:30:54.062Z,2.05
2019-02-09T11:36:00.030Z,1.90
2019-02-09T11:41:30.496Z,2.47
2019-02-09T11:46:34.710Z,2.58
2019-02-09T11:57:05.305Z,3.50
2019-02-09T12:02:07.716Z,2.10
2019-02-09T12:07:20.022Z,1.87
2019-02-09T12:13:06.588Z,1.50
2019-02-09T12:18:42.951Z,1.95
2019-02-09T12:23:52.248Z,1.40
2019-02-09T12:29:12.347Z,1.40
2019-02-09T12:34:17.749Z,1.80
2019-02-09T12:45:11.188Z,1.90
2019-02-09T12:57:36.684Z,1.60
2019-02-09T13:09:39.124Z,1.80
2019-02-09T13:14:54.450Z,1.70
2019-02-09T13:20:46.017Z,2.10
2019-02-09T13:25:59.148Z,2.23
2019-02-09T13:31:03.752Z,2.00
2019-02-09T13:36:15.308Z,2.30
2019-02-09T13:42:01.446Z,2.13
2019-02-09T13:47:06.825Z,2.30
2019-02-09T13:53:01.206Z,2.00
2019-02-09T13:58:17.748Z,2.70
2019-02-09T20:03:03.792Z,3.00
2019-02-09T20:08:09.643Z,3.65
2019-02-09T20:13:20.228Z,3.10
2019-02-09T20:18:29.629Z,5.00
2019-02-09T20:23:33.396Z,6.20
2019-02-09T20:28:38.533Z,5.37
2019-02-09T20:33:49.517Z,5.00
2019-02-09T20:39:04.341Z,4.20
2019-02-09T20:44:04.405Z,3.50
2019-02-09T20:49:11.364Z,3.70
2019-02-09T21:00:07.014Z,3.98
2019-02-09T21:05:18.014Z,4.55
2019-02-09T21:10:31.536Z,4.30
2019-02-09T21:15:37.640Z,3.65
2019-02-09T21:20:42.463Z,3.37
2019-02-09T21:25:47.720Z,4.00
2019-02-09T21:30:56.971Z,4.37
2019-02-09T21:36:02.858Z,4.00
2019-02-09T21:41:07.963Z,4.00
2019-02-09T21:46:12.890Z,4.20
2019-02-09T21:51:18.016Z,3.80
2019-02-09T21:56:28.032Z,4.20
2019-02-09T22:01:40.907Z,3.77
2019-02-09T22:06:49.589Z,3.60
2019-02-09T22:11:57.809Z,3.72
2019-02-09T22:17:05.860Z,3.83
2019-02-09T22:22:24.558Z,3.87
2019-02-09T22:27:30.766Z,3.80
2019-02-09T22:32:37.129Z,3.80
2019-02-09T22:37:41.752Z,4.70
2019-02-09T22:42:46.626Z,3.90
2019-02-09T22:47:54.093Z,3.65
2019-02-09T22:53:00.650Z,3.40
2019-02-09T22:58:06.661Z,5.47
2019-02-09T23:03:13.490Z,4.42
2019-02-09T23:08:23.468Z,4.00
2019-02-09T23:13:28.073Z,3.50
2019-02-09T23:18:32.983Z,3.65
2019-02-09T23:23:59.328Z,3.43
2019-02-09T23:29:29.995Z,3.30
2019-02-09T23:34:42.616Z,3.60
2019-02-09T23:39:54.605Z,2.92
2019-02-09T23:45:02.606Z,3.85
2019-02-09T23:50:08.849Z,3.80
2019-02-09T23:55:17.203Z,3.40
